KCLW/CLW METAR and TAF weather

Enter ICAO airport designator
Station Type Date Time Source
KCLW METAR 2019/10/18 06:55 UTC NOAA

KCLW 180655Z AUTO 00000KT 10SM SCT046 BKN080 22/16 A2991 RMK AO2


Station Type Date Time Source
KCLW Decoded METAR 2019/10/18 06:55 UTC NOAA

Station name not available
Oct 18, 2019 - 02:55 AM EDT / 2019.10.18 0655 UTC
Wind: Calm:0
Visibility: 10 mile(s):0
Sky conditions: mostly cloudy
Temperature: 71 F (22 C)
Dew Point: 60 F (16 C)
Relative Humidity: 68%
Pressure (altimeter): 29.91 in. Hg (1012 hPa)
ob: KCLW 180655Z AUTO 00000KT 10SM SCT046 BKN080 22/16 A2991 RMK AO2
cycle: 7

Station Type Date Time Source
KCLW TAF UTC NOAA

Error!

Example: see airport list